Ontario, CA

2:43 PM PDT on October 20, 2014 (GMT -0700)
Ontario International | Change Station
CLOSE
Current Station
Airport
Location: Ontario,
Elevation: 942 ft
Nearby Weather Stations

Elev 942 ft 34.06 °N, 117.60 °W | Updated 50 minutes ago

Clear
Clear
76 °F
Feels Like 76 °F
N
4
Wind Variable Wind from Variable

Today
High -- | Low -- °F
--% Chance of Precip.
Yesterday
High -- | Low -- °F
Precip. -- in
6:59 AM 6:10 PM
Waning Crescent, 9% visible
Pressure 29.86 in
Visibility 9.0 miles
Clouds Few 8500 ft
Few 20000 ft
Dew Point 58 °F
Humidity 54%
Rainfall 0.00 in
Snow Depth Not available.
UV 5 out of 12
Pollen 3.50 out of 12
Ozone Good
PM2.5 Moderate
Flu Activity Sporadic
METAR KONT 202053Z VRB03KT 9SM FEW085 FEW200 24/14 A2989 RMK AO2 SLP112 T02440144 58024

More Conditions Fewer Conditions

Pressure 29.86 in
Visibility 9.0 miles
Clouds Few 8500 ft
Few 20000 ft
Dew Point 58 °F
Humidity 54%
Rainfall 0.00 in
Snow Depth Not available.
UV 5 out of 12
Pollen 3.50 out of 12
Ozone Good
PM2.5 Moderate
Flu Activity Sporadic
METAR KONT 202053Z VRB03KT 9SM FEW085 FEW200 24/14 A2989 RMK AO2 SLP112 T02440144 58024

More Conditions Fewer Conditions

10-Day Weather Forecast

Almanac

Astronomy

Oct. 20, 2014 Rise Set
Actual Time 6:59 AM PDT 6:10 PM PDT
Civil Twilight 6:34 AM PDT 6:35 PM PDT
Nautical Twilight 6:05 AM PDT 7:04 PM PDT
Astronomical Twilight 5:36 AM PDT 7:33 PM PDT
Moon 4:00 AM PDT 4:28 PM PDT
Length of Visible Light 12h 01m
Length of Day
11h 10m
Waning Crescent, 9% of the Moon is Illuminated
Today
Waning Crescent
Oct 23
New
Oct 30
First Quarter
Nov 6
Full
Nov 14
Last Quarter

Today's Extremes

State Highs State Lows

Community

WunderPhotos

Upload Photos

1,763,527 photos uploaded!

WunderBlogs® & News

Nearby

Air Quality

  Air Quality AQ Index Pollutant
Yesterday Good
PM10
Yesterday Moderate
OZONE
Current Moderate
PM2.5
Current Good
OZONE
Tuesday Good
PM10
Tuesday Good
OZONE
Tuesday Good
CO
Tuesday Good
NO2

Snow Depth

Station Depth Elevation
Leavitt Meadows 0 in 7200 ft
Sonora Pass 0 in 8800 ft
Summit Meadow 0 in 9122 ft
Monitor Pass 0 in 8350 ft
Blue Lakes 0 in 8000 ft

Earthquake Activity

City Distance Mag. Time & Date
Fort Irwin, California 90 miles 3.1 6:03 AM PDT
2014-10-17
Minimum magnitude displayed is 2.5.

Coastal Water Temperatures

Place Temperature
No Stations Reporting

Nearby Weather Stations